Etusivu
METAR-TAF:

METAR-TAF

Lentoasemat :

Penticton, Brittiläinen Kolumbia, Kanada

Leveyspiiri: 49-28N, Pituuspiiri: 119-36W, korkeus merenpinnasta: 344 m

Tämänhetkinen sää

Tämä raportti tehtiin 27 minuuttia sitten, kello 14.00 UTC
Tuuli 2 kn eri suunnista
Lämpötila 6°C
Kosteus 81%
Ilmanpaine 1024 hPa
Näkyvyys: 24.1 km
selkeää

METAR: CYYF 291400Z VRB02KT 15SM SKC 06/03 A3024 RMK SLP247

Aika: 07:27 (14:27 UTC)

Sääennuste

Tämä raportti tehtiin 1 tunti ja 49 minuuttia sitten, kello 12.38 UTC
Ennuste voimassa 29. päivästä klo 13 UTC - 30. päivään klo 01 UTC
Tuuli 3 kn eri suunnista
Näkyvyys: 10 km
selkeää

TAF: CYYF 291238Z 2913/3001 VRB03KT P6SM SKC RMK NXT FCST BY 291900Z

Säähavainnot ja -ennusteet yli 4000 lentoasemalta (METAR- ja TAF-raportit).

Käytössä olevat sääasemat on merkitty karttaan keltaisilla ja punaisilla pisteillä.

Aseta hiiri pisteen päälle nähdäksesi sääaseman nimen.

Klikkaa sitten nähdäksesi säähavainnot ja -ennusteet.

Kartan vaihtaminen: klikkaa mustalla rastilla varustettuja vihreitä pisteitä, niin voit zoomata sisään; viivalla varustettua vihreää pistettä, niin voit zoomata ulos tai vihreitä nuolia, niin pääset viereisille kartoille.


METAR-TAF: